createdAt,value
2019-01-19T00:02:38.928Z,2.37
2019-01-19T00:06:01.157Z,2.00
2019-01-19T00:08:49.805Z,1.63
2019-01-19T00:12:12.749Z,2.00
2019-01-19T00:15:15.442Z,1.97
2019-01-19T00:19:10.016Z,1.60
2019-01-19T00:22:05.816Z,2.40
2019-01-19T00:24:58.140Z,1.60
2019-01-19T00:28:09.729Z,2.50
2019-01-19T00:31:19.659Z,2.00
2019-01-19T00:34:50.270Z,1.70
2019-01-19T00:38:19.648Z,1.47
2019-01-19T00:41:37.345Z,2.67
2019-01-19T00:44:49.231Z,1.73
2019-01-19T00:47:54.064Z,2.27
2019-01-19T00:51:07.471Z,2.10
2019-01-19T00:53:58.610Z,1.40
2019-01-19T00:57:00.779Z,1.30
2019-01-19T00:59:41.239Z,1.70
2019-01-19T01:03:00.209Z,1.23
2019-01-19T01:06:00.416Z,2.23
2019-01-19T01:09:19.764Z,2.10
2019-01-19T01:12:24.946Z,1.77
2019-01-19T01:15:52.174Z,2.00
2019-01-19T01:19:07.179Z,2.03
2019-01-19T01:22:30.149Z,1.60
2019-01-19T01:25:51.758Z,1.43
2019-01-19T01:29:17.756Z,1.50
2019-01-19T01:32:13.982Z,1.80
2019-01-19T01:35:47.106Z,1.70
2019-01-19T01:38:48.491Z,1.37
2019-01-19T01:42:39.372Z,1.43
2019-01-19T01:45:47.905Z,1.90
2019-01-19T01:48:43.270Z,2.37
2019-01-19T01:51:55.375Z,2.37
2019-01-19T01:55:17.445Z,1.80
2019-01-19T01:58:13.389Z,2.40
2019-01-19T02:01:28.868Z,2.27
2019-01-19T02:05:13.870Z,1.80
2019-01-19T02:08:35.988Z,2.60
2019-01-19T02:11:45.122Z,1.50
2019-01-19T02:15:08.385Z,2.10
2019-01-19T02:18:19.770Z,1.50
2019-01-19T02:21:50.815Z,2.20
2019-01-19T02:25:03.044Z,2.23
2019-01-19T02:28:33.234Z,1.93
2019-01-19T02:32:07.794Z,1.70
2019-01-19T02:35:48.641Z,2.00
2019-01-19T02:39:28.623Z,2.00
2019-01-19T02:42:50.671Z,1.93
2019-01-19T02:46:18.311Z,1.77
2019-01-19T02:49:51.338Z,2.13
2019-01-19T02:52:53.625Z,2.20
2019-01-19T02:56:33.391Z,2.30
2019-01-19T03:00:23.965Z,2.30
2019-01-19T03:03:34.189Z,2.20
2019-01-19T03:07:32.049Z,2.20
2019-01-19T03:10:42.679Z,2.10
2019-01-19T03:14:03.989Z,2.23
2019-01-19T03:17:39.438Z,2.27
2019-01-19T03:20:53.596Z,2.40
2019-01-19T03:24:20.231Z,2.53
2019-01-19T03:27:37.775Z,2.50
2019-01-19T03:31:22.169Z,2.40
2019-01-19T03:34:37.958Z,1.80
2019-01-19T03:38:15.704Z,2.30
2019-01-19T03:41:49.314Z,2.17
2019-01-19T03:44:48.245Z,2.47
2019-01-19T03:48:18.872Z,2.10
2019-01-19T03:51:21.463Z,2.10
2019-01-19T03:54:59.921Z,2.57
2019-01-19T03:58:07.067Z,2.30
2019-01-19T04:01:21.740Z,3.10
2019-01-19T04:04:37.219Z,1.70
2019-01-19T04:07:52.691Z,2.97
2019-01-19T04:11:11.457Z,2.47
2019-01-19T04:14:40.632Z,2.40
2019-01-19T04:17:55.773Z,2.37
2019-01-19T04:20:56.777Z,2.10
2019-01-19T04:23:27.286Z,1.93
2019-01-19T04:26:24.741Z,2.03
2019-01-19T04:28:55.728Z,2.27
2019-01-19T04:31:26.154Z,2.60
2019-01-19T04:33:57.073Z,2.20
2019-01-19T04:36:28.223Z,2.83
2019-01-19T04:41:43.939Z,2.17
2019-01-19T04:44:14.526Z,2.23
2019-01-19T04:46:44.948Z,2.23
2019-01-19T04:49:15.380Z,2.47
2019-01-19T04:51:47.961Z,2.53
2019-01-19T04:54:18.409Z,2.20
2019-01-19T04:56:49.090Z,2.17
2019-01-19T04:59:19.521Z,2.23
2019-01-19T05:01:49.985Z,3.20
2019-01-19T05:04:20.553Z,2.53
2019-01-19T05:06:51.390Z,2.10
2019-01-19T05:09:21.793Z,2.50
2019-01-19T05:11:52.204Z,3.47
2019-01-19T05:14:22.664Z,1.93
2019-01-19T05:16:53.079Z,2.90
2019-01-19T05:19:23.531Z,1.90
2019-01-19T05:22:05.315Z,2.10
2019-01-19T05:24:35.800Z,1.83
2019-01-19T05:27:06.288Z,2.10
2019-01-19T05:29:36.734Z,2.50
2019-01-19T05:32:07.161Z,3.57
2019-01-19T05:34:38.570Z,2.00
2019-01-19T05:37:08.999Z,1.93
2019-01-19T05:39:39.445Z,1.87
2019-01-19T05:42:09.857Z,2.40
2019-01-19T05:44:40.292Z,1.93
2019-01-19T05:47:10.770Z,2.37
2019-01-19T05:49:41.496Z,2.43
2019-01-19T05:52:11.967Z,2.10
2019-01-19T05:54:44.636Z,1.97
2019-01-19T05:57:15.031Z,2.00
2019-01-19T05:59:45.473Z,2.30
2019-01-19T06:02:16.003Z,2.63
2019-01-19T06:04:46.426Z,1.77
2019-01-19T06:07:16.964Z,2.63
2019-01-19T06:09:47.397Z,2.30
2019-01-19T06:12:18.063Z,2.40
2019-01-19T06:14:48.531Z,2.30
2019-01-19T06:17:19.018Z,2.07
2019-01-19T06:19:49.933Z,2.20
2019-01-19T06:22:20.650Z,2.23
2019-01-19T06:24:51.077Z,2.40
2019-01-19T06:27:21.627Z,2.67
2019-01-19T06:29:52.202Z,1.90
2019-01-19T06:32:22.655Z,2.47
2019-01-19T06:34:53.082Z,2.23
2019-01-19T06:37:23.537Z,2.40
2019-01-19T06:39:53.993Z,2.60
2019-01-19T06:42:24.439Z,2.17
2019-01-19T06:44:54.870Z,2.20
2019-01-19T06:47:25.329Z,2.30
2019-01-19T06:49:55.885Z,1.90
2019-01-19T06:52:26.348Z,1.63
2019-01-19T06:54:56.766Z,2.23
2019-01-19T06:57:27.328Z,2.30
2019-01-19T06:59:57.879Z,2.87
2019-01-19T07:02:28.494Z,2.37
2019-01-19T07:04:58.910Z,2.33
2019-01-19T07:07:29.894Z,2.23
2019-01-19T07:10:00.308Z,3.33
2019-01-19T07:12:30.794Z,2.27
2019-01-19T07:15:01.334Z,1.83
2019-01-19T07:17:31.828Z,2.83
2019-01-19T07:20:02.262Z,2.17
2019-01-19T07:22:32.663Z,2.40
2019-01-19T07:25:03.116Z,1.80
2019-01-19T07:27:33.539Z,2.03
2019-01-19T07:30:04.792Z,3.87
2019-01-19T07:32:35.239Z,2.50
2019-01-19T07:35:05.819Z,2.77
2019-01-19T07:37:36.224Z,3.50
2019-01-19T07:40:09.130Z,1.97
2019-01-19T07:42:40.813Z,2.00
2019-01-19T07:45:11.994Z,2.43
2019-01-19T07:47:43.274Z,2.90
2019-01-19T07:50:18.334Z,2.43
2019-01-19T07:52:48.795Z,3.23
2019-01-19T07:55:19.430Z,2.70
2019-01-19T07:57:49.897Z,1.67
2019-01-19T08:00:23.943Z,2.03
2019-01-19T08:02:55.461Z,2.13
2019-01-19T08:05:25.889Z,1.63
2019-01-19T08:07:56.545Z,2.23
2019-01-19T08:10:27.941Z,2.30
2019-01-19T08:12:58.372Z,2.47
2019-01-19T08:15:29.539Z,3.13
2019-01-19T08:18:00.172Z,2.90
2019-01-19T08:20:30.609Z,2.33
2019-01-19T08:23:01.061Z,1.90
2019-01-19T08:25:31.461Z,2.90
2019-01-19T08:28:02.096Z,2.70
2019-01-19T08:30:33.091Z,2.73
2019-01-19T08:33:03.620Z,3.00
2019-01-19T08:35:34.658Z,3.17
2019-01-19T08:38:05.219Z,2.53
2019-01-19T08:40:37.694Z,3.10
2019-01-19T08:43:15.940Z,2.77
2019-01-19T08:45:46.340Z,2.80
2019-01-19T08:48:17.289Z,4.03
2019-01-19T08:50:47.759Z,3.30
2019-01-19T08:53:18.186Z,3.90
2019-01-19T08:55:48.598Z,3.80
2019-01-19T08:58:19.717Z,3.70
2019-01-19T09:00:50.146Z,3.70
2019-01-19T09:03:20.634Z,4.07
2019-01-19T09:05:51.118Z,4.47
2019-01-19T09:08:21.618Z,4.00
2019-01-19T09:10:52.074Z,4.30
2019-01-19T09:13:22.602Z,3.97
2019-01-19T09:15:57.346Z,5.43
2019-01-19T09:18:27.846Z,4.50
2019-01-19T09:20:58.319Z,4.53
2019-01-19T09:23:39.271Z,4.60
2019-01-19T09:26:09.820Z,4.30
2019-01-19T09:28:40.309Z,4.33
2019-01-19T09:31:10.788Z,4.40
2019-01-19T09:33:41.251Z,4.90
2019-01-19T09:36:11.690Z,3.50
2019-01-19T09:38:47.117Z,3.80
2019-01-19T09:41:17.618Z,3.70
2019-01-19T09:43:48.172Z,4.00
2019-01-19T09:46:18.707Z,4.03
2019-01-19T09:48:49.191Z,4.20
2019-01-19T09:51:19.688Z,3.87
2019-01-19T09:53:50.262Z,3.53
2019-01-19T09:56:20.796Z,3.23
2019-01-19T09:58:51.232Z,3.67
2019-01-19T10:01:21.776Z,3.50
2019-01-19T10:03:52.498Z,3.57
2019-01-19T10:06:22.939Z,4.10
2019-01-19T10:08:53.448Z,3.37
2019-01-19T10:11:24.003Z,4.33
2019-01-19T10:13:54.662Z,3.30
2019-01-19T10:16:25.250Z,3.10
2019-01-19T10:18:55.896Z,3.87
2019-01-19T10:21:26.669Z,3.40
2019-01-19T10:23:57.240Z,4.53
2019-01-19T10:26:27.742Z,4.20
2019-01-19T10:28:58.803Z,4.57
2019-01-19T10:31:29.332Z,3.90
2019-01-19T10:33:59.928Z,4.10
2019-01-19T10:36:32.406Z,3.73
2019-01-19T10:39:03.049Z,3.00
2019-01-19T10:41:40.656Z,3.87
2019-01-19T10:44:06.019Z,4.00
2019-01-19T10:46:36.486Z,3.90
2019-01-19T10:49:06.929Z,3.80
2019-01-19T10:51:37.478Z,3.00
2019-01-19T10:54:08.087Z,3.30
2019-01-19T10:56:38.519Z,3.70
2019-01-19T10:59:09.057Z,3.40
2019-01-19T11:01:39.481Z,3.57
2019-01-19T11:04:10.031Z,4.23
2019-01-19T11:06:40.457Z,3.47
2019-01-19T11:09:10.947Z,3.00
2019-01-19T11:11:41.426Z,3.17
2019-01-19T11:14:11.879Z,3.80
2019-01-19T11:16:42.409Z,3.70
2019-01-19T11:19:12.978Z,3.37
2019-01-19T11:21:43.476Z,3.30
2019-01-19T11:24:13.991Z,3.33
2019-01-19T11:26:44.463Z,3.17
2019-01-19T11:29:14.866Z,3.37
2019-01-19T11:31:45.328Z,3.80
2019-01-19T11:34:15.807Z,3.37
2019-01-19T11:36:46.241Z,4.40
2019-01-19T11:39:16.717Z,4.13
2019-01-19T11:41:47.140Z,4.00
2019-01-19T11:44:17.626Z,3.30
2019-01-19T11:46:48.103Z,3.23
2019-01-19T11:49:18.552Z,3.20
2019-01-19T11:51:49.214Z,3.30
2019-01-19T11:54:19.995Z,3.43
2019-01-19T11:56:50.537Z,3.27
2019-01-19T11:59:21.073Z,3.13
2019-01-19T12:01:51.513Z,3.57
2019-01-19T12:04:22.111Z,4.00
2019-01-19T12:06:52.520Z,2.40
2019-01-19T12:09:23.252Z,3.10
2019-01-19T12:11:53.689Z,3.10
2019-01-19T12:14:24.104Z,2.80
2019-01-19T12:16:54.571Z,3.33
2019-01-19T12:19:25.010Z,2.97
2019-01-19T12:21:55.465Z,3.20
2019-01-19T12:24:25.945Z,3.00
2019-01-19T12:26:56.504Z,4.40
2019-01-19T12:29:26.943Z,3.67
2019-01-19T12:31:57.513Z,3.23
2019-01-19T12:34:28.002Z,3.37
2019-01-19T12:36:58.510Z,3.50
2019-01-19T12:39:29.005Z,4.10
2019-01-19T12:41:59.611Z,3.73
2019-01-19T12:44:30.094Z,4.57
2019-01-19T12:47:00.847Z,3.97
2019-01-19T12:49:31.941Z,3.50
2019-01-19T12:52:03.507Z,16.67
2019-01-19T12:54:34.009Z,7.60
2019-01-19T12:57:04.415Z,5.37
2019-01-19T12:59:34.904Z,3.23
2019-01-19T13:02:05.438Z,3.83
2019-01-19T13:04:35.883Z,3.50
2019-01-19T13:07:12.742Z,4.00
2019-01-19T13:09:54.824Z,4.10
2019-01-19T13:12:57.616Z,5.00
2019-01-19T13:16:28.922Z,2.53
2019-01-19T13:19:34.682Z,2.53
2019-01-19T13:23:06.812Z,3.53
2019-01-19T13:26:21.780Z,3.30
2019-01-19T13:29:51.933Z,3.07
2019-01-19T13:33:03.166Z,5.33
2019-01-19T13:36:26.532Z,4.20
2019-01-19T13:39:37.023Z,3.77
2019-01-19T13:43:21.911Z,3.33
2019-01-19T13:46:05.409Z,4.00
2019-01-19T13:49:40.164Z,3.93
2019-01-19T13:52:26.691Z,4.70
2019-01-19T13:55:44.227Z,3.80
2019-01-19T13:58:42.978Z,5.27
2019-01-19T14:02:32.650Z,5.27
2019-01-19T14:06:14.231Z,4.33
2019-01-19T14:09:33.939Z,4.20
2019-01-19T14:13:21.158Z,3.80
2019-01-19T14:16:31.001Z,6.40
2019-01-19T14:20:22.209Z,4.00
2019-01-19T14:23:27.560Z,4.43
2019-01-19T14:26:55.765Z,3.70
2019-01-19T14:30:39.260Z,3.70
2019-01-19T14:33:47.001Z,3.43
2019-01-19T14:37:25.770Z,3.70
2019-01-19T14:40:40.238Z,3.93
2019-01-19T14:43:55.178Z,3.67
2019-01-19T14:47:06.773Z,3.43
2019-01-19T14:50:22.181Z,4.50
2019-01-19T14:53:54.592Z,4.00
2019-01-19T14:57:16.757Z,4.40
2019-01-19T15:00:30.501Z,3.43
2019-01-19T15:04:09.171Z,3.57
2019-01-19T15:07:57.861Z,3.10
2019-01-19T15:11:55.711Z,3.80
2019-01-19T15:15:07.790Z,9.20
2019-01-19T15:18:18.789Z,3.60
2019-01-19T15:21:13.771Z,3.70
2019-01-19T15:24:15.127Z,4.20
2019-01-19T15:27:36.046Z,3.30
2019-01-19T15:30:50.190Z,3.20
2019-01-19T15:34:09.878Z,3.90
2019-01-19T15:37:36.506Z,2.90
2019-01-19T15:41:06.649Z,2.90
2019-01-19T15:44:25.197Z,4.23
2019-01-19T15:47:50.791Z,2.70
2019-01-19T15:51:42.242Z,3.63
2019-01-19T15:55:21.995Z,3.37
2019-01-19T15:58:19.633Z,2.73
2019-01-19T16:01:54.977Z,4.07
2019-01-19T16:05:12.029Z,3.80
2019-01-19T16:08:22.544Z,3.00
2019-01-19T16:11:10.344Z,3.70
2019-01-19T16:14:54.407Z,3.50
2019-01-19T16:18:17.013Z,2.53
2019-01-19T16:21:46.812Z,2.03
2019-01-19T16:25:34.188Z,3.13
2019-01-19T16:28:59.147Z,2.50
2019-01-19T16:32:42.294Z,2.53
2019-01-19T16:35:58.519Z,2.00
2019-01-19T16:39:30.143Z,2.37
2019-01-19T16:42:46.005Z,3.60
2019-01-19T16:46:12.633Z,2.50
2019-01-19T16:49:47.097Z,2.20
2019-01-19T16:52:54.846Z,2.63
2019-01-19T16:56:43.463Z,2.00
2019-01-19T17:00:09.953Z,2.37
2019-01-19T17:03:48.854Z,3.13
2019-01-19T17:07:20.130Z,2.33
2019-01-19T17:10:07.876Z,2.40
2019-01-19T17:13:33.582Z,2.27
2019-01-19T17:16:49.498Z,1.93
2019-01-19T17:20:07.578Z,1.97
2019-01-19T17:23:48.951Z,2.67
2019-01-19T17:27:28.782Z,2.77
2019-01-19T17:30:56.082Z,2.20
2019-01-19T17:34:20.787Z,2.10
2019-01-19T17:38:05.269Z,1.80
2019-01-19T17:41:40.508Z,2.87
2019-01-19T17:44:48.451Z,3.00
2019-01-19T17:48:09.360Z,2.60
2019-01-19T17:51:03.857Z,3.80
2019-01-19T17:54:45.666Z,3.17
2019-01-19T17:58:16.858Z,3.53
2019-01-19T18:01:36.759Z,3.10
2019-01-19T18:05:06.589Z,3.30
2019-01-19T18:08:35.859Z,3.47
2019-01-19T18:11:54.554Z,3.30
2019-01-19T18:15:26.730Z,2.30
2019-01-19T18:18:51.870Z,3.50
2019-01-19T18:22:13.463Z,5.60
2019-01-19T18:25:49.280Z,4.77
2019-01-19T18:29:25.937Z,4.37
2019-01-19T18:32:40.831Z,4.43
2019-01-19T18:35:55.334Z,3.70
2019-01-19T18:39:44.714Z,5.00
2019-01-19T18:42:43.499Z,3.80
2019-01-19T18:45:54.901Z,3.53
2019-01-19T18:49:04.143Z,3.10
2019-01-19T18:52:27.621Z,3.33
2019-01-19T18:56:13.247Z,2.90
2019-01-19T18:59:38.751Z,2.40
2019-01-19T19:02:56.921Z,3.50
2019-01-19T19:06:37.611Z,3.40
2019-01-19T19:10:12.942Z,3.53
2019-01-19T19:13:40.092Z,3.87
2019-01-19T19:17:10.678Z,3.07
2019-01-19T19:20:22.521Z,3.40
2019-01-19T19:23:21.319Z,2.87
2019-01-19T19:26:58.307Z,3.20
2019-01-19T19:30:21.973Z,2.93
2019-01-19T19:33:17.511Z,3.57
2019-01-19T19:36:31.646Z,3.17
2019-01-19T19:39:53.636Z,3.33
2019-01-19T19:43:12.140Z,3.67
2019-01-19T19:46:32.007Z,3.60
2019-01-19T19:49:28.674Z,3.30
2019-01-19T19:52:06.296Z,3.63
2019-01-19T19:54:37.895Z,2.97
2019-01-19T19:57:08.471Z,2.90
2019-01-19T19:59:39.025Z,2.70
2019-01-19T20:02:09.465Z,3.30
2019-01-19T20:04:41.065Z,3.03
2019-01-19T20:07:11.795Z,3.30
2019-01-19T20:09:42.244Z,2.63
2019-01-19T20:12:12.783Z,4.03
2019-01-19T20:14:43.442Z,4.13
2019-01-19T20:17:13.961Z,2.83
2019-01-19T20:19:45.295Z,4.00
2019-01-19T20:22:15.920Z,3.40
2019-01-19T20:24:46.450Z,3.07
2019-01-19T20:27:17.024Z,2.93
2019-01-19T20:29:47.889Z,3.60
2019-01-19T20:32:18.436Z,4.40
2019-01-19T20:34:48.882Z,4.00
2019-01-19T20:37:19.521Z,3.90
2019-01-19T20:39:50.148Z,2.90
2019-01-19T20:42:21.184Z,3.37
2019-01-19T20:44:51.972Z,2.97
2019-01-19T20:47:22.530Z,3.03
2019-01-19T20:49:52.977Z,3.80
2019-01-19T20:52:23.541Z,4.60
2019-01-19T20:54:54.000Z,13.77
2019-01-19T20:57:24.557Z,13.80
2019-01-19T20:59:55.063Z,7.87
2019-01-19T21:02:25.589Z,4.67
2019-01-19T21:04:56.244Z,4.33
2019-01-19T21:07:26.667Z,6.10
2019-01-19T21:09:57.243Z,5.43
2019-01-19T21:12:27.729Z,3.33
2019-01-19T21:14:58.233Z,3.67
2019-01-19T21:17:29.224Z,3.90
2019-01-19T21:19:59.886Z,4.20
2019-01-19T21:22:30.392Z,3.30
2019-01-19T21:25:04.521Z,3.30
2019-01-19T21:27:34.974Z,3.83
2019-01-19T21:30:07.258Z,4.40
2019-01-19T21:32:37.709Z,3.80
2019-01-19T21:35:08.587Z,5.53
2019-01-19T21:37:39.132Z,4.20
2019-01-19T21:40:11.211Z,3.87
2019-01-19T21:42:41.626Z,3.43
2019-01-19T21:45:16.662Z,4.30
2019-01-19T21:47:47.161Z,5.20
2019-01-19T21:50:17.558Z,4.67
2019-01-19T21:52:49.132Z,4.30
2019-01-19T21:55:19.563Z,5.47
2019-01-19T21:57:49.998Z,4.50
2019-01-19T22:00:21.956Z,3.20
2019-01-19T22:02:52.720Z,3.37
2019-01-19T22:05:25.114Z,3.30
2019-01-19T22:07:55.571Z,4.20
2019-01-19T22:10:26.225Z,4.43
2019-01-19T22:12:56.688Z,4.80
2019-01-19T22:15:27.264Z,4.27
2019-01-19T22:17:57.901Z,4.60
2019-01-19T22:20:28.457Z,4.07
2019-01-19T22:22:58.959Z,3.67
2019-01-19T22:25:29.402Z,3.60
2019-01-19T22:28:00.063Z,4.90
2019-01-19T22:30:30.499Z,3.50
2019-01-19T22:33:01.017Z,3.90
2019-01-19T22:35:31.521Z,3.87
2019-01-19T22:38:02.005Z,3.93
2019-01-19T22:40:32.471Z,3.70
2019-01-19T22:43:07.659Z,3.47
2019-01-19T22:45:38.192Z,2.73
2019-01-19T22:48:08.646Z,3.47
2019-01-19T22:50:39.101Z,3.00
2019-01-19T22:53:09.593Z,3.70
2019-01-19T22:55:40.011Z,3.90
2019-01-19T22:58:10.517Z,2.63
2019-01-19T23:01:15.861Z,2.53
2019-01-19T23:03:46.381Z,4.67
2019-01-19T23:06:16.871Z,2.80
2019-01-19T23:08:47.348Z,2.97
2019-01-19T23:11:17.808Z,2.73
2019-01-19T23:13:48.353Z,2.60
2019-01-19T23:16:18.790Z,3.20
2019-01-19T23:18:49.223Z,3.80
2019-01-19T23:21:19.749Z,3.43
2019-01-19T23:23:50.229Z,2.83
2019-01-19T23:26:20.983Z,2.60
2019-01-19T23:28:52.243Z,3.23
2019-01-19T23:31:23.176Z,3.43
2019-01-19T23:33:53.627Z,2.63
2019-01-19T23:36:24.132Z,2.50
2019-01-19T23:38:54.652Z,2.10
2019-01-19T23:41:25.113Z,2.60
2019-01-19T23:43:55.607Z,2.40
2019-01-19T23:46:26.044Z,3.17
2019-01-19T23:48:56.498Z,2.37
2019-01-19T23:51:27.036Z,2.37
2019-01-19T23:53:57.564Z,2.80
2019-01-19T23:56:28.029Z,2.83
2019-01-19T23:58:58.430Z,2.70
